Time;durP1;ratioP1;P1;durP2;ratioP2;P2;SDS_P1;SDS_P2;PMS_P1;PMS_P2;Temp;Humidity;BMP_temperature;BMP_pressure;BME280_temperature;BME280_humidity;BME280_pressure;Samples;Min_cycle;Max_cycle;Signal;HPM_P1;HPM_P2
2024/02/13 00:01:54;;;;;;;9.32;4.28;;;;;;;6.58;100.00;98232.47;5055226;28;20723;-92
2024/02/13 00:04:20;;;;;;;11.52;6.05;;;;;;;6.41;100.00;98226.66;5056109;28;20049;-92
2024/02/13 00:06:47;;;;;;;10.50;5.72;;;;;;;6.21;100.00;98197.97;5056956;28;20048;-92
2024/02/13 00:09:14;;;;;;;13.98;6.47;;;;;;;6.30;100.00;98222.44;5056156;28;20025;-92
2024/02/13 00:11:40;;;;;;;10.90;6.22;;;;;;;6.08;100.00;98211.41;5056546;28;20040;-93
2024/02/13 00:14:07;;;;;;;9.77;5.78;;;;;;;6.19;100.00;98232.31;5056516;28;20037;-90
2024/02/13 00:16:37;;;;;;;8.55;4.43;;;;;;;5.93;100.00;98175.56;5053945;28;20047;-93
2024/02/13 00:19:03;;;;;;;12.93;5.25;;;;;;;6.05;100.00;98200.91;5052210;28;20037;-94
2024/02/13 00:21:31;;;;;;;12.85;5.75;;;;;;;6.19;100.00;98212.97;5056043;28;20037;-93
2024/02/13 00:23:58;;;;;;;12.73;5.88;;;;;;;6.36;100.00;98232.88;5056179;28;20041;-93
2024/02/13 00:26:24;;;;;;;8.88;5.80;;;;;;;6.19;100.00;98236.75;5055624;28;20037;-93
2024/02/13 00:28:50;;;;;;;10.45;4.68;;;;;;;6.05;100.00;98210.56;5056294;28;20062;-92
2024/02/13 00:31:16;;;;;;;12.38;5.40;;;;;;;6.11;100.00;98248.28;5054496;28;20073;-92
2024/02/13 00:33:42;;;;;;;9.52;4.30;;;;;;;5.96;100.00;98228.34;5055318;28;20048;-93
2024/02/13 00:36:08;;;;;;;10.68;5.85;;;;;;;6.09;100.00;98243.94;5055322;28;20041;-91
2024/02/13 00:38:34;;;;;;;13.38;7.10;;;;;;;5.85;100.00;98195.06;5056173;28;20041;-93
2024/02/13 00:41:04;;;;;;;18.58;7.78;;;;;;;5.82;100.00;98217.09;5056300;28;20037;-92
2024/02/13 00:43:30;;;;;;;15.75;7.85;;;;;;;5.91;100.00;98216.94;5056460;28;20037;-92
2024/02/13 00:45:57;;;;;;;12.45;7.30;;;;;;;6.07;100.00;98246.63;5055076;28;20077;-94
2024/02/13 00:48:23;;;;;;;16.10;7.97;;;;;;;6.27;100.00;98272.66;5056241;28;20383;-93
2024/02/13 00:50:49;;;;;;;16.88;9.25;;;;;;;5.80;100.00;98187.22;5056865;28;20132;-92
2024/02/13 00:53:15;;;;;;;17.55;9.18;;;;;;;5.86;100.00;98181.84;5056985;28;20059;-93
2024/02/13 00:55:42;;;;;;;17.25;9.32;;;;;;;6.31;100.00;98255.88;5056231;28;20550;-92
2024/02/13 00:58:10;;;;;;;16.70;9.13;;;;;;;6.34;100.00;98269.00;5055444;28;20037;-92
2024/02/13 01:00:36;;;;;;;17.02;8.65;;;;;;;6.38;100.00;98267.19;5053556;28;20064;-93
2024/02/13 01:03:02;;;;;;;15.70;8.45;;;;;;;6.20;100.00;98251.66;5055109;28;20048;-90
2024/02/13 01:05:30;;;;;;;17.48;8.57;;;;;;;5.85;100.00;98206.47;5056381;28;20379;-93
2024/02/13 01:07:56;;;;;;;14.60;9.05;;;;;;;5.87;100.00;98231.06;5056361;28;20021;-92
2024/02/13 01:10:23;;;;;;;13.70;8.27;;;;;;;5.96;100.00;98244.16;5056066;28;20041;-92
2024/02/13 01:12:50;;;;;;;14.23;8.15;;;;;;;5.72;100.00;98232.19;5055093;28;20393;-91
2024/02/13 01:15:17;;;;;;;17.98;9.18;;;;;;;5.85;100.00;98269.81;5054566;28;20068;-91
2024/02/13 01:17:43;;;;;;;15.75;8.45;;;;;;;5.94;100.00;98268.78;5055163;28;20548;-93
2024/02/13 01:20:11;;;;;;;19.70;10.88;;;;;;;5.93;100.00;98270.56;5056290;28;20041;-93
2024/02/13 01:22:40;;;;;;;16.30;8.77;;;;;;;5.76;100.00;98244.44;5055909;28;20513;-93
2024/02/13 01:25:09;;;;;;;14.25;8.57;;;;;;;6.13;100.00;98282.59;5054833;28;20033;-93
2024/02/13 01:27:35;;;;;;;17.95;9.63;;;;;;;6.17;100.00;98292.19;5055413;28;20490;-92
2024/02/13 01:30:02;;;;;;;16.25;9.68;;;;;;;5.94;100.00;98259.16;5056890;28;20109;-92
2024/02/13 01:32:31;;;;;;;15.85;9.95;;;;;;;6.06;100.00;98278.31;5056661;28;20051;-91
2024/02/13 01:34:57;;;;;;;21.33;11.20;;;;;;;5.76;100.00;98233.88;5055948;28;20041;-93
2024/02/13 01:37:23;;;;;;;15.05;8.77;;;;;;;6.09;100.00;98263.28;5055623;28;20402;-92
2024/02/13 01:39:49;;;;;;;16.17;9.95;;;;;;;6.27;100.00;98293.78;5055223;28;20045;-93
2024/02/13 01:42:17;;;;;;;15.20;9.43;;;;;;;5.76;100.00;98217.19;5055580;28;20124;-92
2024/02/13 01:44:42;;;;;;;16.17;10.57;;;;;;;6.09;100.00;98272.97;5054983;28;20056;-92
2024/02/13 01:47:09;;;;;;;20.35;8.43;;;;;;;6.22;100.00;98269.22;5053327;28;20044;-93
2024/02/13 01:49:36;;;;;;;18.13;8.45;;;;;;;6.28;100.00;98277.03;5055003;28;20033;-92
2024/02/13 01:52:05;;;;;;;16.10;8.57;;;;;;;6.07;100.00;98253.66;5054669;28;20485;-93
2024/02/13 01:54:31;;;;;;;17.17;8.10;;;;;;;5.97;100.00;98235.34;5053779;28;20099;-92
2024/02/13 01:56:59;;;;;;;15.73;8.63;;;;;;;6.23;100.00;98270.97;5055304;28;20033;-92
2024/02/13 01:59:27;;;;;;;17.30;9.48;;;;;;;6.27;100.00;98274.44;5056036;28;20409;-92
2024/02/13 02:01:54;;;;;;;14.40;8.32;;;;;;;6.38;100.00;98285.69;5053796;28;20045;-94
2024/02/13 02:04:20;;;;;;;14.40;7.38;;;;;;;6.31;100.00;98274.34;5057057;28;20135;-94
2024/02/13 02:06:49;;;;;;;19.27;10.82;;;;;;;6.19;100.00;98252.56;5055971;28;20118;-91
2024/02/13 02:09:15;;;;;;;22.63;9.63;;;;;;;6.31;100.00;98274.34;5053618;28;20037;-93
2024/02/13 02:11:41;;;;;;;19.48;8.63;;;;;;;6.14;100.00;98250.88;5064454;28;20080;-92
2024/02/13 02:14:08;;;;;;;16.80;8.82;;;;;;;6.12;100.00;98246.53;5059761;28;20072;-93
2024/02/13 02:16:35;;;;;;;13.80;8.80;;;;;;;6.37;100.00;98299.75;5057159;28;20055;-92
2024/02/13 02:19:02;;;;;;;14.93;8.52;;;;;;;6.11;100.00;98252.69;5058414;28;20109;-92
2024/02/13 02:21:29;;;;;;;15.63;9.85;;;;;;;6.23;100.00;98280.69;5058446;28;20487;-93
2024/02/13 02:23:56;;;;;;;14.25;8.55;;;;;;;6.25;100.00;98287.66;5058732;28;20049;-91
2024/02/13 02:26:25;;;;;;;17.67;9.30;;;;;;;6.16;100.00;98278.13;5058326;28;20021;-93
2024/02/13 02:28:50;;;;;;;14.98;8.18;;;;;;;6.01;100.00;98256.38;5058450;28;20040;-92
2024/02/13 02:31:16;;;;;;;17.65;8.57;;;;;;;6.16;100.00;98296.63;5056267;28;20053;-93
2024/02/13 02:33:43;;;;;;;13.00;8.75;;;;;;;6.03;100.00;98266.06;5062740;28;20033;-93
2024/02/13 02:36:09;;;;;;;14.32;8.27;;;;;;;6.27;100.00;98312.28;5059379;28;20498;-93
2024/02/13 02:38:38;;;;;;;15.13;7.93;;;;;;;5.65;100.00;98222.66;5058904;28;20045;-94
2024/02/13 02:41:04;;;;;;;12.48;7.45;;;;;;;5.87;100.00;98277.72;5057546;28;20051;-94
2024/02/13 02:43:31;;;;;;;11.85;6.88;;;;;;;5.99;100.00;98282.81;5057247;28;20368;-93
2024/02/13 02:45:58;;;;;;;14.68;7.97;;;;;;;5.96;100.00;98286.41;5057242;28;20041;-91
2024/02/13 02:48:24;;;;;;;16.88;9.18;;;;;;;6.03;100.00;98332.03;5058614;28;20090;-93
2024/02/13 02:50:50;;;;;;;17.63;8.75;;;;;;;5.30;100.00;98265.38;5059931;28;20048;-92
2024/02/13 02:53:16;;;;;;;14.23;8.65;;;;;;;5.29;100.00;98275.06;5060656;28;20429;-92
2024/02/13 02:55:42;;;;;;;16.27;8.18;;;;;;;5.22;100.00;98256.69;5058764;28;20041;-92
2024/02/13 02:58:09;;;;;;;17.67;8.80;;;;;;;5.80;100.00;98350.81;5059302;28;20044;-92
2024/02/13 03:00:36;;;;;;;14.52;8.50;;;;;;;5.63;100.00;98331.72;5058252;28;20079;-93
2024/02/13 03:03:03;;;;;;;14.23;7.97;;;;;;;5.68;100.00;98329.88;5059641;28;20136;-92
2024/02/13 03:05:29;;;;;;;18.92;9.15;;;;;;;5.91;100.00;98348.00;5059175;28;20062;-92
2024/02/13 03:07:54;;;;;;;13.73;7.78;;;;;;;5.85;100.00;98340.19;5058929;28;20044;-93
2024/02/13 03:10:20;;;;;;;15.32;7.60;;;;;;;5.44;100.00;98255.47;5059019;28;20037;-93
2024/02/13 03:12:46;;;;;;;14.48;7.53;;;;;;;5.73;100.00;98305.19;5058247;28;20073;-94
2024/02/13 03:15:13;;;;;;;14.68;10.38;;;;;;;5.65;100.00;98316.75;5055609;28;20063;-93
2024/02/13 03:17:40;;;;;;;15.27;7.95;;;;;;;5.86;100.00;98349.88;5057236;28;20053;-94
2024/02/13 03:20:10;;;;;;;14.70;7.53;;;;;;;5.86;100.00;98326.97;5058555;28;20044;-91
2024/02/13 03:22:37;;;;;;;10.80;6.40;;;;;;;5.73;100.00;98349.16;5058889;28;20032;-93
2024/02/13 03:25:04;;;;;;;10.45;6.47;;;;;;;6.05;100.00;98374.22;5059246;28;20436;-92
2024/02/13 03:27:30;;;;;;;11.98;6.18;;;;;;;5.82;100.00;98338.47;5058021;28;20040;-92
2024/02/13 03:29:57;;;;;;;11.80;7.05;;;;;;;5.89;100.00;98363.00;5059473;28;20045;-92
2024/02/13 03:32:23;;;;;;;11.77;7.20;;;;;;;5.27;100.00;98311.13;5057187;28;20041;-92
2024/02/13 03:34:51;;;;;;;12.63;6.80;;;;;;;5.65;100.00;98373.00;5059063;28;20041;-92
2024/02/13 03:37:17;;;;;;;10.43;6.90;;;;;;;5.06;100.00;98309.63;5058871;28;20036;-92
2024/02/13 03:39:42;;;;;;;14.43;6.75;;;;;;;5.62;100.00;98391.53;5059162;28;20051;-92
2024/02/13 03:42:09;;;;;;;10.68;5.00;;;;;;;5.44;100.00;98368.88;5058757;28;20449;-92
2024/02/13 03:44:37;;;;;;;10.95;5.18;;;;;;;5.51;100.00;98373.19;5058019;28;20031;-92
2024/02/13 03:47:05;;;;;;;9.30;5.57;;;;;;;5.27;100.00;98349.75;5056439;28;20460;-92
2024/02/13 03:49:31;;;;;;;12.43;5.03;;;;;;;5.36;100.00;98407.69;5058256;28;20131;-92
2024/02/13 03:51:59;;;;;;;10.30;5.38;;;;;;;5.04;100.00;98340.38;5057841;28;20116;-93
2024/02/13 03:54:25;;;;;;;9.80;5.30;;;;;;;5.20;100.00;98366.56;5058531;28;20039;-92
2024/02/13 03:56:51;;;;;;;10.50;5.43;;;;;;;5.52;100.00;98408.34;5058803;28;20076;-94
2024/02/13 03:59:17;;;;;;;11.00;6.03;;;;;;;5.11;100.00;98352.59;5058330;28;20044;-93
2024/02/13 04:01:43;;;;;;;11.90;7.10;;;;;;;5.54;100.00;98396.03;5055250;28;20072;-92
2024/02/13 04:04:09;;;;;;;14.68;6.30;;;;;;;5.47;100.00;98410.19;5058911;28;20087;-92
2024/02/13 04:06:36;;;;;;;14.10;6.50;;;;;;;5.53;100.00;98418.88;5058006;28;20062;-90
2024/02/13 04:09:07;;;;;;;13.70;7.30;;;;;;;5.40;100.00;98409.38;5058166;28;20045;-92
2024/02/13 04:11:33;;;;;;;19.17;8.40;;;;;;;5.25;100.00;98393.75;5055023;28;20041;-91
2024/02/13 04:13:59;;;;;;;15.38;7.30;;;;;;;5.80;100.00;98442.28;5058388;28;20037;-93
2024/02/13 04:16:25;;;;;;;11.30;6.88;;;;;;;5.18;100.00;98385.00;5053601;28;20033;-91
2024/02/13 04:18:53;;;;;;;12.25;6.03;;;;;;;5.42;100.00;98407.59;5055144;28;20040;-92
2024/02/13 04:21:19;;;;;;;11.77;5.25;;;;;;;5.44;100.00;98412.84;5058619;28;20044;-90
2024/02/13 04:23:46;;;;;;;9.85;4.93;;;;;;;5.54;100.00;98433.81;5058131;28;20059;-91
2024/02/13 04:26:13;;;;;;;8.48;4.25;;;;;;;5.50;100.00;98418.03;5058057;28;20048;-92
2024/02/13 04:28:41;;;;;;;8.90;4.55;;;;;;;5.54;100.00;98444.34;5055868;28;20041;-91
2024/02/13 04:31:07;;;;;;;9.55;6.00;;;;;;;5.57;100.00;98438.16;5054612;28;20045;-91
2024/02/13 04:33:33;;;;;;;10.05;5.13;;;;;;;5.46;100.00;98409.28;5057505;28;20029;-91
2024/02/13 04:35:59;;;;;;;8.98;4.40;;;;;;;5.40;100.00;98435.75;5073265;28;20398;-91
2024/02/13 04:38:25;;;;;;;10.07;5.00;;;;;;;5.28;100.00;98401.63;5057317;28;20043;-91
2024/02/13 04:40:51;;;;;;;7.72;4.18;;;;;;;5.54;100.00;98428.53;5056937;28;20155;-91
2024/02/13 04:43:18;;;;;;;9.20;5.25;;;;;;;5.54;100.00;98438.22;5057522;28;20033;-91
2024/02/13 04:45:44;;;;;;;7.43;5.03;;;;;;;5.60;100.00;98448.69;5054898;28;20137;-91
2024/02/13 04:48:12;;;;;;;10.23;5.00;;;;;;;5.54;100.00;98459.31;5057897;28;20076;-91
2024/02/13 04:50:38;;;;;;;8.43;4.80;;;;;;;5.41;100.00;98432.22;5057674;28;20037;-92
2024/02/13 04:53:04;;;;;;;11.38;6.15;;;;;;;5.72;100.00;98459.06;5061174;28;20033;-91
2024/02/13 04:55:32;;;;;;;11.60;5.43;;;;;;;5.73;100.00;98476.66;5056830;28;20033;-92
2024/02/13 04:57:58;;;;;;;9.52;5.65;;;;;;;5.51;100.00;98433.84;5056694;28;20049;-92
2024/02/13 05:00:29;;;;;;;10.60;6.50;;;;;;;5.32;100.00;98398.06;5056005;28;20051;-92
2024/02/13 05:03:16;;;;;;;9.18;5.72;;;;;;;5.49;100.00;98429.50;5056398;28;20039;-92
2024/02/13 05:08:45;;;;;;;15.32;6.07;;;;;;;5.92;100.00;98473.78;5116475;27;20746;-91
2024/02/13 05:11:11;;;;;;;29.48;6.90;;;;;;;5.96;100.00;98450.03;5098120;28;20047;-91
2024/02/13 05:13:39;;;;;;;31.13;7.03;;;;;;;5.99;100.00;98456.16;5098195;28;20097;-92
2024/02/13 05:16:06;;;;;;;35.65;8.65;;;;;;;6.17;100.00;98492.84;5096066;28;20131;-92
2024/02/13 05:18:33;;;;;;;13.75;6.40;;;;;;;6.11;100.00;98482.38;5098773;28;20082;-92
2024/02/13 05:20:59;;;;;;;15.15;6.30;;;;;;;6.05;100.00;98472.78;5098450;28;20070;-94
2024/02/13 05:23:25;;;;;;;29.27;6.82;;;;;;;5.75;100.00;98455.56;5097197;28;20040;-91
2024/02/13 05:25:52;;;;;;;47.33;7.47;;;;;;;5.40;100.00;98450.69;5097204;28;20063;-90
2024/02/13 05:28:18;;;;;;;30.73;6.03;;;;;;;5.31;100.00;98494.75;5095160;28;20479;-92
2024/02/13 05:30:44;;;;;;;10.65;5.82;;;;;;;5.44;100.00;98479.63;5095121;28;20044;-92
2024/02/13 05:33:13;;;;;;;28.80;6.45;;;;;;;5.21;100.00;98450.91;5097696;28;20042;-92
2024/02/13 05:35:41;;;;;;;8.82;4.72;;;;;;;5.70;100.00;98507.47;5096330;28;20131;-93
2024/02/13 05:38:09;;;;;;;8.35;4.85;;;;;;;5.62;100.00;98488.25;5099163;28;20058;-91
2024/02/13 05:40:38;;;;;;;6.43;3.97;;;;;;;5.42;100.00;98460.34;5097852;28;20036;-92
2024/02/13 05:43:08;;;;;;;12.30;5.80;;;;;;;5.70;100.00;98512.75;5097517;28;20123;-92
2024/02/13 05:45:34;;;;;;;24.02;8.40;;;;;;;5.37;100.00;98442.81;5095525;28;20040;-92
2024/02/13 05:48:01;;;;;;;16.10;5.63;;;;;;;5.67;100.00;98484.66;5098054;28;20032;-92
2024/02/13 05:50:28;;;;;;;14.38;6.25;;;;;;;5.60;100.00;98474.22;5096497;28;20047;-91
2024/02/13 05:52:54;;;;;;;12.90;6.18;;;;;;;5.85;100.00;98528.41;5096139;28;20039;-92
2024/02/13 05:55:19;;;;;;;12.45;6.50;;;;;;;5.97;100.00;98545.91;5097674;28;20043;-91
2024/02/13 05:57:45;;;;;;;9.27;5.63;;;;;;;5.54;100.00;98493.59;5096146;28;20032;-91
2024/02/13 06:00:14;;;;;;;10.40;5.88;;;;;;;5.82;100.00;98540.78;5095367;28;20094;-91
2024/02/13 06:02:40;;;;;;;7.35;6.07;;;;;;;5.82;100.00;98546.06;5098122;28;20085;-91
2024/02/13 06:05:07;;;;;;;12.52;6.38;;;;;;;5.13;100.00;98505.44;5093387;28;20050;-91
2024/02/13 06:07:33;;;;;;;24.38;5.15;;;;;;;5.14;100.00;98512.50;5095591;28;20401;-90
2024/02/13 06:09:59;;;;;;;12.10;6.35;;;;;;;5.33;100.00;98550.06;5098120;28;20048;-93
2024/02/13 06:12:25;;;;;;;14.02;6.88;;;;;;;5.54;100.00;98559.53;5097821;28;20065;-93
2024/02/13 06:14:52;;;;;;;15.32;7.00;;;;;;;5.47;100.00;98548.19;5101077;28;20048;-92
2024/02/13 06:17:20;;;;;;;16.80;8.23;;;;;;;5.56;100.00;98552.50;5097695;28;20085;-91
2024/02/13 06:19:46;;;;;;;14.93;9.15;;;;;;;5.64;100.00;98570.84;5086417;28;20118;-91
2024/02/13 06:22:12;;;;;;;14.75;8.27;;;;;;;5.23;100.00;98500.97;5084560;28;20068;-92
2024/02/13 06:24:38;;;;;;;14.25;7.97;;;;;;;5.33;100.00;98515.78;5084304;28;20066;-91
2024/02/13 06:27:04;;;;;;;11.27;6.82;;;;;;;5.73;100.00;98589.25;5084496;28;20032;-92
2024/02/13 06:29:30;;;;;;;16.60;7.95;;;;;;;5.72;100.00;98591.00;5084109;28;20584;-91
2024/02/13 06:31:57;;;;;;;15.45;7.85;;;;;;;5.74;100.00;98593.63;5082112;28;20059;-91
2024/02/13 06:34:26;;;;;;;15.38;9.05;;;;;;;5.79;100.00;98589.19;5083978;28;20040;-91
2024/02/13 06:36:52;;;;;;;16.17;8.85;;;;;;;5.45;100.00;98597.44;5083851;28;20050;-90
2024/02/13 06:39:21;;;;;;;19.13;6.70;;;;;;;5.44;100.00;98605.34;5083222;28;20078;-92
2024/02/13 06:41:46;;;;;;;13.68;7.10;;;;;;;5.39;100.00;98570.25;5082853;28;20031;-91
2024/02/13 06:44:12;;;;;;;15.00;6.93;;;;;;;5.41;100.00;98565.84;5082558;28;20110;-91
2024/02/13 06:46:38;;;;;;;14.52;7.00;;;;;;;5.31;100.00;98563.28;5081389;28;20091;-92
2024/02/13 06:49:04;;;;;;;22.20;7.97;;;;;;;5.29;100.00;98570.34;5083194;28;20138;-92
2024/02/13 06:51:33;;;;;;;18.25;8.68;;;;;;;5.42;100.00;98621.19;5082966;28;20044;-91
2024/02/13 06:54:01;;;;;;;15.10;6.72;;;;;;;5.17;100.00;98566.94;5081553;28;20129;-91
2024/02/13 06:56:28;;;;;;;17.27;6.78;;;;;;;5.61;100.00;98645.63;5083530;28;20040;-90
2024/02/13 06:58:54;;;;;;;16.48;7.85;;;;;;;5.46;100.00;98619.41;5086235;28;20028;-92
2024/02/13 07:01:23;;;;;;;26.50;8.52;;;;;;;5.72;100.00;98646.41;5082558;28;20107;-92
2024/02/13 07:03:50;;;;;;;15.68;8.05;;;;;;;5.58;100.00;98616.66;5086917;28;20047;-91
2024/02/13 07:06:18;;;;;;;73.80;9.77;;;;;;;5.47;100.00;98600.94;5082302;28;20400;-92
2024/02/13 07:08:45;;;;;;;16.73;7.80;;;;;;;5.73;100.00;98636.75;5084468;28;20067;-93
2024/02/13 07:11:11;;;;;;;13.70;6.95;;;;;;;5.57;100.00;98606.97;5085947;28;20032;-92
2024/02/13 07:13:37;;;;;;;16.52;7.93;;;;;;;5.81;100.00;98650.72;5084203;28;20061;-93
2024/02/13 07:16:06;;;;;;;23.40;9.98;;;;;;;6.10;100.00;98661.00;5081595;28;20020;-92
2024/02/13 07:18:33;;;;;;;81.85;10.93;;;;;;;6.01;100.00;98624.16;5083334;28;20036;-91
2024/02/13 07:20:59;;;;;;;58.53;10.38;;;;;;;6.30;100.00;98663.41;5083124;28;20044;-90
2024/02/13 07:23:25;;;;;;;89.97;12.00;;;;;;;6.29;100.00;98684.56;5082198;28;20044;-92
2024/02/13 07:25:52;;;;;;;27.05;9.38;;;;;;;6.15;100.00;98643.34;5083355;28;20036;-92
2024/02/13 07:28:19;;;;;;;35.28;7.97;;;;;;;6.35;100.00;98647.53;5083972;28;20481;-92
2024/02/13 07:30:46;;;;;;;24.20;9.02;;;;;;;6.25;100.00;98617.72;5080136;28;20042;-91
2024/02/13 07:33:12;;;;;;;28.77;9.00;;;;;;;6.60;100.00;98666.59;5083100;28;20492;-92
2024/02/13 07:35:38;;;;;;;66.40;9.68;;;;;;;6.69;100.00;98684.97;5082391;28;20048;-90
2024/02/13 07:38:04;;;;;;;39.97;9.35;;;;;;;6.54;100.00;98658.75;5082801;28;20043;-93
2024/02/13 07:40:30;;;;;;;47.20;8.50;;;;;;;6.66;100.00;98670.91;5083542;28;20044;-93
2024/02/13 07:42:57;;;;;;;18.73;7.05;;;;;;;6.74;100.00;98677.88;5083449;28;20054;-93
2024/02/13 07:45:24;;;;;;;45.83;6.70;;;;;;;6.36;100.00;98671.28;5079317;28;20062;-92
2024/02/13 07:47:52;;;;;;;18.23;5.65;;;;;;;6.63;100.00;98671.81;5083965;28;20028;-92
2024/02/13 07:50:18;;;;;;;29.23;5.88;;;;;;;6.71;100.00;98680.53;5082610;28;21209;-92
2024/02/13 07:52:44;;;;;;;33.17;6.28;;;;;;;6.58;100.00;98650.75;5083002;28;20036;-92
2024/02/13 07:55:10;;;;;;;19.52;6.53;;;;;;;6.95;100.00;98689.03;5084342;28;20035;-92
2024/02/13 07:57:36;;;;;;;29.63;6.35;;;;;;;6.88;100.00;98660.94;5082281;28;20023;-93
2024/02/13 08:00:06;;;;;;;12.80;6.90;;;;;;;7.24;100.00;98719.47;5081231;28;20049;-91
2024/02/13 08:02:32;;;;;;;119.72;9.65;;;;;;;6.83;100.00;98711.22;5081114;28;20131;-91
2024/02/13 08:04:59;;;;;;;81.43;8.57;;;;;;;6.61;100.00;98700.03;5081453;28;20076;-92
2024/02/13 08:07:27;;;;;;;37.85;7.53;;;;;;;6.73;100.00;98702.53;5079881;28;20058;-92
2024/02/13 08:09:55;;;;;;;30.35;7.05;;;;;;;7.10;100.00;98720.53;5081653;28;20524;-89
2024/02/13 08:12:21;;;;;;;14.48;6.15;;;;;;;7.00;100.00;98663.41;5082083;28;20111;-91
2024/02/13 08:14:46;;;;;;;12.55;6.03;;;;;;;7.60;100.00;98718.91;5083018;28;20067;-93
2024/02/13 08:17:14;;;;;;;55.70;7.78;;;;;;;7.68;100.00;98718.81;5080200;28;20135;-93
2024/02/13 08:19:40;;;;;;;13.73;6.15;;;;;;;8.09;100.00;98716.34;5082638;28;20044;-94
2024/02/13 08:22:06;;;;;;;17.40;5.85;;;;;;;7.87;100.00;98729.97;5081685;28;20051;-94
2024/02/13 08:24:33;;;;;;;9.38;4.90;;;;;;;7.75;100.00;98662.22;5084801;28;20110;-90
2024/02/13 08:26:59;;;;;;;31.15;8.43;;;;;;;7.90;100.00;98716.66;5081342;28;20122;-92
2024/02/13 08:29:25;;;;;;;15.57;7.50;;;;;;;7.99;100.00;98723.56;5080407;28;20070;-93
2024/02/13 08:31:52;;;;;;;31.13;7.28;;;;;;;7.91;100.00;98694.56;5078470;28;20351;-93
2024/02/13 08:34:21;;;;;;;26.88;7.15;;;;;;;7.57;100.00;98663.41;5081445;28;20028;-93
2024/02/13 08:36:48;;;;;;;12.90;6.82;;;;;;;7.99;100.00;98700.59;5081925;28;20070;-92
2024/02/13 08:39:14;;;;;;;16.35;7.00;;;;;;;7.94;100.00;98651.31;5082515;28;21399;-93
2024/02/13 08:41:40;;;;;;;17.42;7.43;;;;;;;8.08;100.00;98691.63;5082473;28;20504;-93
2024/02/13 08:44:09;;;;;;;16.15;7.95;;;;;;;8.12;100.00;98687.16;5084629;28;20036;-94
2024/02/13 08:46:35;;;;;;;17.13;8.10;;;;;;;8.17;100.00;98669.41;5082861;28;20116;-94
2024/02/13 08:49:01;;;;;;;24.10;8.40;;;;;;;8.31;100.00;98699.16;5083460;28;20070;-93
2024/02/13 08:51:30;;;;;;;40.65;8.35;;;;;;;8.58;100.00;98731.34;5082848;28;20495;-93
2024/02/13 08:53:56;;;;;;;44.90;8.15;;;;;;;8.40;100.00;98671.59;5084131;28;20040;-94
2024/02/13 08:56:22;;;;;;;11.00;7.03;;;;;;;8.70;100.00;98698.44;5082662;28;20090;-95
2024/02/13 08:58:52;;;;;;;13.05;7.32;;;;;;;8.72;100.00;98694.84;5084024;28;20040;-94
2024/02/13 09:01:20;;;;;;;18.80;7.85;;;;;;;8.79;100.00;98683.19;5081825;28;20366;-96
2024/02/13 09:03:50;;;;;;;13.65;7.07;;;;;;;9.30;100.00;98747.53;5076720;28;20484;-94
2024/02/13 09:06:17;;;;;;;18.02;9.40;;;;;;;9.22;100.00;98715.88;5078504;28;20040;-93
2024/02/13 09:08:44;;;;;;;17.33;7.68;;;;;;;9.45;100.00;98742.78;5079686;28;20447;-94
2024/02/13 09:11:12;;;;;;;18.35;8.30;;;;;;;9.30;100.00;98713.03;5079247;28;20051;-92
2024/02/13 09:13:38;;;;;;;13.77;8.52;;;;;;;9.53;100.00;98736.41;5079033;28;20134;-94
2024/02/13 09:16:06;;;;;;;16.25;8.02;;;;;;;9.77;100.00;98749.06;5078618;28;20047;-92
2024/02/13 09:18:32;;;;;;;16.92;9.25;;;;;;;9.78;100.00;98752.59;5078692;28;20040;-94
2024/02/13 09:20:58;;;;;;;17.52;9.10;;;;;;;9.85;100.00;98743.59;5077666;28;20048;-94
2024/02/13 09:23:27;;;;;;;17.65;9.07;;;;;;;9.71;100.00;98740.38;5078382;28;20040;-96
2024/02/13 09:25:56;;;;;;;17.85;9.77;;;;;;;9.93;100.00;98751.34;5077732;28;20062;-95
2024/02/13 09:28:23;;;;;;;18.60;10.15;;;;;;;10.11;100.00;98755.38;5076897;28;20032;-92
2024/02/13 09:30:50;;;;;;;66.13;10.32;;;;;;;10.18;100.00;98746.31;5075621;28;20040;-94
2024/02/13 09:33:17;;;;;;;23.45;10.90;;;;;;;10.29;100.00;98736.31;5076670;28;20040;-94
2024/02/13 09:35:44;;;;;;;19.23;9.98;;;;;;;10.31;100.00;98762.84;5079257;28;20036;-94
2024/02/13 09:38:11;;;;;;;20.40;10.65;;;;;;;9.96;100.00;98706.13;5079448;28;20047;-95
2024/02/13 09:40:37;;;;;;;20.40;10.43;;;;;;;10.08;100.00;98713.78;5077545;28;20048;-95
2024/02/13 09:43:05;;;;;;;19.70;10.10;;;;;;;9.91;100.00;98674.38;5079786;28;20061;-93
2024/02/13 09:45:33;;;;;;;19.92;9.73;;;;;;;10.18;100.00;98699.34;5078532;28;20071;-93
2024/02/13 09:48:03;;;;;;;33.35;10.25;;;;;;;10.53;100.00;98745.41;5078603;28;20048;-93
2024/02/13 09:50:37;;;;;;;21.42;10.68;;;;;;;10.72;100.00;98759.06;5078635;28;20481;-92
2024/02/13 09:53:09;;;;;;;20.42;10.05;;;;;;;10.20;100.00;98688.69;5079893;28;20036;-94
2024/02/13 09:55:37;;;;;;;17.50;10.15;;;;;;;10.60;100.00;98731.00;5082313;28;20048;-94
2024/02/13 09:58:03;;;;;;;22.73;11.13;;;;;;;10.90;100.00;98763.00;5082170;28;20032;-94
2024/02/13 10:00:32;;;;;;;20.15;10.85;;;;;;;10.80;100.00;98719.84;5079949;28;20043;-93
2024/02/13 10:03:02;;;;;;;19.27;11.30;;;;;;;11.13;100.00;98748.16;5080305;28;20043;-94
2024/02/13 10:05:31;;;;;;;22.75;11.40;;;;;;;11.22;100.00;98754.06;5081288;28;20032;-93
2024/02/13 10:07:57;;;;;;;18.17;10.23;;;;;;;11.09;100.00;98718.97;5079713;28;20060;-95
2024/02/13 10:10:22;;;;;;;16.20;9.73;;;;;;;11.37;100.00;98749.22;5081971;28;20149;-95
2024/02/13 10:12:50;;;;;;;20.67;10.68;;;;;;;11.33;100.00;98729.78;5081109;28;20047;-93
2024/02/13 10:15:16;;;;;;;14.85;8.35;;;;;;;11.46;100.00;98727.63;5080338;28;20060;-96
2024/02/13 10:17:45;;;;;;;19.20;10.85;;;;;;;11.54;100.00;98709.63;5081605;28;20054;-93
2024/02/13 10:20:13;;;;;;;15.65;10.10;;;;;;;11.91;100.00;98764.41;5081708;28;20071;-94
2024/02/13 10:22:45;;;;;;;13.75;8.60;;;;;;;12.02;100.00;98762.25;5081288;28;20040;-93
2024/02/13 10:25:11;;;;;;;14.38;10.15;;;;;;;11.90;100.00;98720.00;5081043;28;20489;-95
2024/02/13 10:27:37;;;;;;;16.08;9.68;;;;;;;12.31;100.00;98761.25;5081559;28;20032;-93
2024/02/13 10:30:06;;;;;;;15.35;9.90;;;;;;;11.81;100.00;98757.59;5080375;28;20078;-94
2024/02/13 10:32:37;;;;;;;13.45;8.75;;;;;;;11.60;100.00;98729.84;5080405;28;20040;-93
2024/02/13 10:35:08;;;;;;;14.15;9.43;;;;;;;11.86;100.00;98726.31;5078714;28;20044;-91
2024/02/13 10:37:34;;;;;;;17.67;8.90;;;;;;;12.16;100.00;98763.59;5080232;28;20051;-95
2024/02/13 10:40:05;;;;;;;14.20;9.48;;;;;;;12.11;100.00;98732.63;5081220;28;20033;-94
2024/02/13 10:42:37;;;;;;;5.25;2.92;;;;;;;12.03;100.00;98737.31;5080219;28;20485;-94
2024/02/13 10:45:06;;;;;;;5.00;1.90;;;;;;;11.92;100.00;98736.81;5079407;28;20130;-93
2024/02/13 10:47:37;;;;;;;2.95;1.90;;;;;;;12.14;100.00;98734.31;5080296;28;20024;-92
2024/02/13 10:50:07;;;;;;;2.72;1.58;;;;;;;12.57;100.00;98751.47;5080923;28;20044;-94
2024/02/13 10:52:35;;;;;;;3.30;1.85;;;;;;;12.50;100.00;98725.97;5080636;28;20462;-93
2024/02/13 10:55:06;;;;;;;2.17;1.50;;;;;;;12.80;100.00;98740.00;5079064;28;20032;-93
2024/02/13 10:57:36;;;;;;;3.22;2.20;;;;;;;12.18;100.00;98684.44;5078426;28;20524;-94
2024/02/13 11:00:08;;;;;;;2.67;1.52;;;;;;;12.23;100.00;98685.13;5079124;28;20051;-92
2024/02/13 11:02:35;;;;;;;3.10;2.13;;;;;;;12.53;100.00;98739.16;5082186;28;20051;-94
2024/02/13 11:05:06;;;;;;;3.95;2.30;;;;;;;12.79;100.00;98724.03;5079223;28;20043;-93
2024/02/13 11:07:34;;;;;;;3.58;1.67;;;;;;;12.84;100.00;98719.41;5078708;28;20089;-92
2024/02/13 11:10:00;;;;;;;2.45;1.67;;;;;;;12.94;100.00;98712.78;5079715;28;20075;-92
2024/02/13 11:12:26;;;;;;;2.72;2.08;;;;;;;12.79;100.00;98700.00;5078830;28;20548;-94
2024/02/13 11:14:52;;;;;;;5.32;2.78;;;;;;;12.81;100.00;98722.19;5079258;28;20476;-92
2024/02/13 11:17:18;;;;;;;3.85;2.42;;;;;;;12.92;100.00;98725.31;5077720;28;20081;-92
2024/02/13 11:19:48;;;;;;;3.13;2.03;;;;;;;12.86;100.00;98728.19;5079357;28;20093;-93
2024/02/13 11:22:15;;;;;;;1.75;1.42;;;;;;;12.99;100.00;98728.63;5077956;28;20083;-93
2024/02/13 11:24:48;;;;;;;2.42;1.80;;;;;;;13.13;100.00;98742.34;5082942;28;20040;-96
2024/02/13 11:27:17;;;;;;;3.55;2.38;;;;;;;13.14;100.00;98728.03;5079249;28;20104;-93